Meteo Giornale » Osservazioni meteo Germania » Ansbach-Katterbach
ore: 21:55 - Osservazioni Meteo Ansbach-Katterbach
Lat. 49° 19' N Lon. 10° 38' E Alt. 467 metri s.l.m.
15 °C
Sereno
Temp. 24 Ore
0 °C
23 °C
Ovest/Sud-Ovest
13 Km/h
Dew point 12 °C
Umidità 82 %
Visibilità 10 Km
Il sole sorge alle ore 06:32
Il sole tramonta alle ore 20:03
| Data e Ora | Cielo e Fenomeni | T °C | DP °C | Um. % | Pres. hPa | Vis. km | Vento km/h | |
|---|---|---|---|---|---|---|---|---|
| Oggi h: 21:55 | Sereno | 15 | 12 | 82 | 1019 | 10 | O/SO 13 | |
| Oggi h: 20:55 | Poco Nuvoloso | 16 | 12 | 77 | 1018 | 10 | SO 16.7 | |
| Oggi h: 19:38 | Sereno | 17 | 0 | 31 | 1018 | 0 | N 0 | |
| Oggi h: 19:24 | Pioggia | 0 | 0 | 53 | 1018 | 0 | N 0 | |
| Oggi h: 19:21 | Sereno | 0 | 0 | 78 | 0 | 0 | N 0 | |
| Oggi h: 19:11 | Pioviggine | 0 | 0 | 93 | 1017 | 10 | O/SO 27.8 | |
| Oggi h: 19:04 | Sereno | 21 | 11 | 52 | 1017 | 10 | O/SO 25.9 | |
| Oggi h: 18:55 | Pioggia | 22 | 11 | 49 | 1017 | 0 | O/SO 16.7 | |
| Oggi h: 18:54 | Pioggia | 0 | 0 | 73 | 1017 | 0 | O/SO 18.5 | |
| Oggi h: 17:55 | Nuvoloso | 22 | 10 | 46 | 1017 | 10 | O/SO 24 | |
| Oggi h: 16:55 | Poco Nuvoloso | 23 | 10 | 43 | 1017 | 10 | SO 25.9 | |
| Oggi h: 15:55 | Poco Nuvoloso | 23 | 11 | 46 | 1017 | 10 | SO 22.2 | |
| Oggi h: 14:55 | Nuvoloso | 23 | 10 | 43 | 1017 | 10 | S/SO 35.2 | |
| Oggi h: 13:55 | Nuvoloso | 22 | 11 | 49 | 1017 | 10 | SO 29.6 | |
| Oggi h: 12:55 | Nuvoloso | 22 | 12 | 53 | 1017 | 10 | SO 27.8 | |
| Oggi h: 11:55 | Sereno | 20 | 12 | 59 | 1017 | 10 | O 25.9 | |
| Oggi h: 10:55 | Sereno | 19 | 13 | 68 | 1017 | 10 | O 24 | |
| Oggi h: 09:55 | Molto Nuvoloso | 17 | 13 | 77 | 1017 | 10 | O/SO 27.8 | |
| Oggi h: 08:55 | Molto Nuvoloso | 19 | 16 | 82 | 1017 | 10 | O/SO 20.3 | |
| Oggi h: 08:10 | Nuvoloso | 17 | 15 | 88 | 1016 | 10 | O/SO 13 | |
| Oggi h: 07:55 | Molto Nuvoloso | 17 | 15 | 88 | 1016 | 10 | O/SO 20.3 | |
| Oggi h: 06:55 | Coperto | 17 | 15 | 88 | 1015 | 10 | O/SO 20.3 | |
| Oggi h: 06:25 | Molto Nuvoloso | 17 | 15 | 88 | 1015 | 10 | SO 14.8 | |
| Oggi h: 05:55 | Nuvoloso | 16 | 15 | 93 | 1015 | 10 | SO 13 | |
| Oggi h: 05:26 | Nuvoloso | 16 | 15 | 93 | 1015 | 10 | S/SO 13 | |
| Oggi h: 05:03 | Pioggia | 16 | 15 | 93 | 1015 | 10 | S 11.1 | |
| Oggi h: 04:59 | Sereno | 16 | 15 | 93 | 1015 | 10 | S/SO 11.1 | |
| Oggi h: 04:55 | Pioggia | 16 | 15 | 93 | 1015 | 10 | S/SO 9.3 | |
| Oggi h: 04:54 | Pioggia | 16 | 15 | 93 | 1015 | 10 | S/SO 9.3 | |
| Oggi h: 04:44 | Temporale nelle vicinanze | 16 | 15 | 93 | 1015 | 10 | SO 11.1 | |
| Oggi h: 04:19 | Temporale nelle vicinanze Pioggia | 16 | 14 | 87 | 1015 | 6 | S/SO 14.8 | |
| Oggi h: 04:10 | Temporale Pioggia | 16 | 14 | 87 | 1015 | 5 | S 24 | |
| Oggi h: 03:55 | Temporale Pioggia | 17 | 14 | 82 | 1015 | 10 | S/SO 25.9 | |
| Oggi h: 03:52 | Temporale Pioggia | 17 | 14 | 82 | 1014 | 10 | S 13 | |
| Oggi h: 03:48 | Temporale | 17 | 14 | 82 | 1013 | 10 | SE 7.4 | |
| Oggi h: 02:55 | Poco Nuvoloso | 17 | 14 | 82 | 1014 | 10 | E/SE 9.3 | |
| Oggi h: 01:55 | Sereno | 16 | 13 | 82 | 1015 | 10 | N 5.5 | |
| Oggi h: 00:55 | Poco Nuvoloso | 17 | 13 | 77 | 1015 | 10 | SE 7.4 | |
| Ieri h: 23:55 | Sereno | 17 | 13 | 77 | 1016 | 10 | SE 7.4 | |
| Ieri h: 22:55 | Sereno | 17 | 13 | 77 | 1016 | 10 | N 0 | |



